createdAt,value
2024-05-09T00:01:50.463Z,12.95
2024-05-09T00:06:52.316Z,13.39
2024-05-09T00:11:54.199Z,13.40
2024-05-09T00:16:56.072Z,13.33
2024-05-09T00:21:57.880Z,13.04
2024-05-09T00:26:59.648Z,13.17
2024-05-09T00:32:01.575Z,12.81
2024-05-09T00:37:03.557Z,12.92
2024-05-09T00:42:05.354Z,12.99
2024-05-09T00:47:08.226Z,12.90
2024-05-09T00:52:10.575Z,12.79
2024-05-09T00:57:12.430Z,12.80
2024-05-09T01:02:15.563Z,12.57
2024-05-09T01:07:17.359Z,12.68
2024-05-09T01:12:19.238Z,12.70
2024-05-09T01:17:21.360Z,12.62
2024-05-09T01:22:23.768Z,12.34
2024-05-09T01:27:25.592Z,12.38
2024-05-09T01:32:27.519Z,12.35
2024-05-09T01:37:29.439Z,12.33
2024-05-09T01:42:31.357Z,12.28
2024-05-09T01:47:33.298Z,12.13
2024-05-09T01:52:38.767Z,12.01
2024-05-09T01:57:40.520Z,11.96
2024-05-09T02:02:46.447Z,11.89
2024-05-09T02:07:48.355Z,12.00
2024-05-09T02:12:50.133Z,11.80
2024-05-09T02:17:52.070Z,11.70
2024-05-09T02:22:54.011Z,11.62
2024-05-09T02:27:55.801Z,11.69
2024-05-09T02:32:57.709Z,11.58
2024-05-09T02:37:59.871Z,11.45
2024-05-09T02:43:01.837Z,11.44
2024-05-09T02:48:04.173Z,11.47
2024-05-09T02:53:07.230Z,11.52
2024-05-09T02:58:09.879Z,11.22
2024-05-09T03:03:14.252Z,11.25
2024-05-09T03:08:17.418Z,11.21
2024-05-09T03:13:19.447Z,11.11
2024-05-09T03:18:21.378Z,11.11
2024-05-09T03:23:23.517Z,11.17
2024-05-09T03:28:25.330Z,10.99
2024-05-09T03:33:27.352Z,11.01
2024-05-09T03:38:29.282Z,10.76
2024-05-09T03:43:31.105Z,10.80
2024-05-09T03:48:35.759Z,10.95
2024-05-09T03:53:37.659Z,10.87
2024-05-09T03:58:39.482Z,10.93
2024-05-09T04:03:41.515Z,10.95
2024-05-09T04:08:43.370Z,10.93
2024-05-09T04:13:45.265Z,10.98
2024-05-09T04:18:47.183Z,11.04
2024-05-09T04:23:49.014Z,10.96
2024-05-09T04:28:50.921Z,11.22
2024-05-09T04:33:53.035Z,11.33
2024-05-09T04:38:54.873Z,11.43
2024-05-09T04:43:56.719Z,11.65
2024-05-09T04:48:58.595Z,11.69
2024-05-09T04:54:00.348Z,11.78
2024-05-09T04:59:02.128Z,11.85
2024-05-09T05:04:04.047Z,11.83
2024-05-09T05:09:05.993Z,11.72
2024-05-09T05:14:07.805Z,11.87
2024-05-09T05:19:12.027Z,12.02
2024-05-09T05:24:15.212Z,12.10
2024-05-09T05:29:20.207Z,12.28
2024-05-09T05:34:22.483Z,12.51
2024-05-09T05:39:24.334Z,12.60
2024-05-09T05:44:26.304Z,12.76
2024-05-09T05:49:28.302Z,12.78
2024-05-09T05:54:30.129Z,13.09
2024-05-09T05:59:32.053Z,13.06
2024-05-09T06:04:34.032Z,13.39
2024-05-09T06:09:35.848Z,13.29
2024-05-09T06:14:37.768Z,13.69
2024-05-09T06:19:39.723Z,13.93
2024-05-09T06:24:41.563Z,14.23
2024-05-09T06:29:43.360Z,14.25
2024-05-09T06:34:46.875Z,13.85
2024-05-09T06:39:48.767Z,14.35
2024-05-09T06:44:50.678Z,14.64
2024-05-09T06:49:53.396Z,15.18
2024-05-09T06:54:55.161Z,15.62
2024-05-09T07:00:00.909Z,16.00
2024-05-09T07:05:03.166Z,16.11
2024-05-09T07:10:07.782Z,16.18
2024-05-09T07:15:11.908Z,16.16
2024-05-09T07:20:23.100Z,16.10
2024-05-09T07:25:29.884Z,15.98
2024-05-09T07:30:34.378Z,16.05
2024-05-09T07:35:37.092Z,16.17
2024-05-09T07:40:40.419Z,16.26
2024-05-09T07:45:51.133Z,16.30
2024-05-09T07:52:39.204Z,16.51
2024-05-09T07:56:19.130Z,16.48
2024-05-09T08:01:25.865Z,16.70
2024-05-09T08:06:28.110Z,16.77
2024-05-09T08:11:32.191Z,16.68
2024-05-09T08:16:34.143Z,16.75
2024-05-09T08:21:36.343Z,16.93
2024-05-09T08:26:38.710Z,16.76
2024-05-09T08:31:40.518Z,16.59
2024-05-09T08:36:42.442Z,17.07
2024-05-09T08:41:49.712Z,17.21
2024-05-09T08:46:51.839Z,17.14
2024-05-09T08:51:53.671Z,17.30
2024-05-09T08:56:56.366Z,17.49
2024-05-09T09:01:59.135Z,17.56
2024-05-09T09:07:03.369Z,16.99
2024-05-09T09:12:06.720Z,17.30
2024-05-09T09:17:16.258Z,17.16
2024-05-09T09:22:19.834Z,16.95
2024-05-09T09:27:22.265Z,16.85
2024-05-09T09:32:28.495Z,17.41
2024-05-09T09:37:30.566Z,16.75
2024-05-09T09:42:35.321Z,17.02
2024-05-09T09:47:39.930Z,17.16
2024-05-09T09:52:42.021Z,17.16
2024-05-09T09:57:48.793Z,17.61
2024-05-09T10:02:50.671Z,17.27
2024-05-09T10:07:53.094Z,17.61
2024-05-09T10:13:05.093Z,17.17
2024-05-09T10:18:07.443Z,17.39
2024-05-09T10:23:29.599Z,17.55
2024-05-09T10:28:33.312Z,17.89
2024-05-09T10:33:54.552Z,17.93
2024-05-09T10:38:56.571Z,18.08
2024-05-09T10:43:58.355Z,17.01
2024-05-09T10:49:03.339Z,17.30
2024-05-09T10:54:07.801Z,17.58
2024-05-09T10:59:09.619Z,17.84
2024-05-09T11:04:11.578Z,18.08
2024-05-09T11:09:13.550Z,18.32
2024-05-09T11:14:15.416Z,18.02
2024-05-09T11:19:19.750Z,17.68
2024-05-09T11:24:22.826Z,17.42
2024-05-09T11:29:39.832Z,17.76
2024-05-09T11:34:42.403Z,17.58
2024-05-09T11:39:44.414Z,17.66
2024-05-09T11:44:46.257Z,17.81
2024-05-09T11:49:48.369Z,17.55
2024-05-09T11:54:50.308Z,17.83
2024-05-09T11:59:52.125Z,17.91
2024-05-09T12:04:54.048Z,18.26
2024-05-09T12:09:55.945Z,18.67
2024-05-09T12:14:57.707Z,18.14
2024-05-09T12:19:59.610Z,17.88
2024-05-09T12:25:04.755Z,18.17
2024-05-09T12:30:11.264Z,18.10
2024-05-09T12:35:14.320Z,18.04
2024-05-09T12:40:23.154Z,18.02
2024-05-09T12:45:33.477Z,17.79
2024-05-09T12:50:35.944Z,17.83
2024-05-09T12:55:44.980Z,18.25
2024-05-09T13:00:55.142Z,18.16
2024-05-09T13:05:56.990Z,18.04
2024-05-09T13:10:58.850Z,18.23
2024-05-09T13:16:00.811Z,18.45
2024-05-09T13:21:02.597Z,18.20
2024-05-09T13:26:04.682Z,18.03
2024-05-09T13:31:06.487Z,18.31
2024-05-09T13:36:08.340Z,18.66
2024-05-09T13:41:11.599Z,18.76
2024-05-09T13:46:13.483Z,18.40
2024-05-09T13:51:15.303Z,18.68
2024-05-09T13:56:17.082Z,18.57
2024-05-09T14:01:18.989Z,18.50
2024-05-09T14:06:21.128Z,18.46
2024-05-09T14:11:23.155Z,18.49
2024-05-09T14:16:25.218Z,18.30
2024-05-09T14:21:27.084Z,18.49
2024-05-09T14:26:28.911Z,18.60
2024-05-09T14:31:30.692Z,18.33
2024-05-09T14:36:33.334Z,18.35
2024-05-09T14:41:35.163Z,18.34
2024-05-09T14:46:37.076Z,18.44
2024-05-09T14:51:40.071Z,18.54
2024-05-09T14:56:41.980Z,18.42
2024-05-09T15:01:43.763Z,18.57
2024-05-09T15:06:48.174Z,18.40
2024-05-09T15:11:50.169Z,18.40
2024-05-09T15:16:52.177Z,18.55
2024-05-09T15:21:54.009Z,18.44
2024-05-09T15:26:55.894Z,18.52
2024-05-09T15:31:57.716Z,18.76
2024-05-09T15:36:59.826Z,18.71
2024-05-09T15:42:02.773Z,18.58
2024-05-09T15:47:04.602Z,18.50
2024-05-09T15:52:06.631Z,18.34
2024-05-09T15:57:08.559Z,18.72
2024-05-09T16:02:11.564Z,18.70
2024-05-09T16:07:13.627Z,18.52
2024-05-09T16:12:15.456Z,18.55
2024-05-09T16:17:17.363Z,18.46
2024-05-09T16:22:19.252Z,18.51
2024-05-09T16:27:22.170Z,18.54
2024-05-09T16:32:24.334Z,18.47
2024-05-09T16:37:29.414Z,18.40
2024-05-09T16:42:31.476Z,18.37
2024-05-09T16:47:33.536Z,18.53
2024-05-09T16:52:35.503Z,18.37
2024-05-09T16:57:37.426Z,18.37
2024-05-09T17:02:40.082Z,18.36
2024-05-09T17:07:41.994Z,18.55
2024-05-09T17:12:43.794Z,18.43
2024-05-09T17:17:45.624Z,18.40
2024-05-09T17:22:47.488Z,18.42
2024-05-09T17:27:49.328Z,18.31
2024-05-09T17:32:51.146Z,18.25
2024-05-09T17:37:52.991Z,18.21
2024-05-09T17:42:54.774Z,18.21
2024-05-09T17:47:56.904Z,18.17
2024-05-09T17:52:58.945Z,18.21
2024-05-09T17:58:01.069Z,18.00
2024-05-09T18:03:03.040Z,17.94
2024-05-09T18:08:08.544Z,17.89
2024-05-09T18:13:12.091Z,17.80
2024-05-09T18:18:14.282Z,17.74
2024-05-09T18:23:18.027Z,17.60
2024-05-09T18:28:21.118Z,17.58
2024-05-09T18:33:24.492Z,17.49
2024-05-09T18:38:26.994Z,17.40
2024-05-09T18:43:37.922Z,17.34
2024-05-09T18:48:44.071Z,17.21
2024-05-09T18:53:46.292Z,17.17
2024-05-09T18:58:48.077Z,17.02
2024-05-09T19:03:50.381Z,16.96
2024-05-09T19:08:52.321Z,16.83
2024-05-09T19:13:54.232Z,16.79
2024-05-09T19:18:56.914Z,16.71
2024-05-09T19:23:58.764Z,16.62
2024-05-09T19:29:00.513Z,16.58
2024-05-09T19:34:02.659Z,16.50
2024-05-09T19:39:04.474Z,16.34
2024-05-09T19:44:06.274Z,16.33
2024-05-09T19:49:08.309Z,16.38
2024-05-09T19:54:10.675Z,16.46
2024-05-09T19:59:12.972Z,16.39
2024-05-09T20:04:14.980Z,16.25
2024-05-09T20:09:17.451Z,16.16
2024-05-09T20:14:19.204Z,16.06
2024-05-09T20:19:21.313Z,15.93
2024-05-09T20:24:23.167Z,15.83
2024-05-09T20:29:25.022Z,15.84
2024-05-09T20:34:26.881Z,15.70
2024-05-09T20:39:28.688Z,15.66
2024-05-09T20:44:30.496Z,15.71
2024-05-09T20:49:32.395Z,15.61
2024-05-09T20:54:34.438Z,15.59
2024-05-09T20:59:37.815Z,15.49
2024-05-09T21:04:39.820Z,15.49
2024-05-09T21:09:41.770Z,15.38
2024-05-09T21:14:43.575Z,15.20
2024-05-09T21:19:45.533Z,15.21
2024-05-09T21:24:47.574Z,15.21
2024-05-09T21:29:49.384Z,15.17
2024-05-09T21:34:51.210Z,15.08
2024-05-09T21:39:53.026Z,15.07
2024-05-09T21:44:54.838Z,14.90
2024-05-09T21:49:56.720Z,14.79
2024-05-09T21:54:58.742Z,14.85
2024-05-09T22:00:00.636Z,14.71
2024-05-09T22:05:02.465Z,14.75
2024-05-09T22:10:08.039Z,14.62
2024-05-09T22:15:11.675Z,14.45
2024-05-09T22:20:21.831Z,14.55
2024-05-09T22:25:31.202Z,14.52
2024-05-09T22:30:37.802Z,14.44
2024-05-09T22:35:41.604Z,14.35
2024-05-09T22:40:48.286Z,14.15
2024-05-09T22:45:55.549Z,14.30
2024-05-09T22:50:57.558Z,14.22
2024-05-09T22:55:59.328Z,14.02
2024-05-09T23:01:01.220Z,14.15
2024-05-09T23:06:06.140Z,14.09
2024-05-09T23:11:08.024Z,13.98
2024-05-09T23:16:10.179Z,13.97
2024-05-09T23:21:12.019Z,13.91
2024-05-09T23:26:13.776Z,13.86
2024-05-09T23:31:15.618Z,13.82
2024-05-09T23:36:17.390Z,13.66
2024-05-09T23:41:19.183Z,13.68
2024-05-09T23:46:21.042Z,13.66
2024-05-09T23:51:23.009Z,13.56
2024-05-09T23:56:24.784Z,13.51
